Back to top

Gillette, WY weather

Gillette-Campbell County Airport (AMOS), Gillette, WY: 12/12/2019 23:53
Visibility10 statute milesclear sky
View 7-Day Forecast
Area Summary
Sky/CloudsSky Clear
Weather [last 24 hours]None
Pressure29.82 in.Hg (1010 hPa)
Dew Point21.9 °F (-5.6 °C)
Relative Humidity77.5 %
Temperature28 °F (-2.2 °C)red thermometer
Wind Chill19.2 °F (-7.1 °C)
Reading TimeMinimum to Maximum Temperature
6-hr ending 12/12@22:5328.9 °F to 42.1 °F (-1.7 °C to 5.6 °C)
6-hr ending 12/12@16:5335.1 °F to 45 °F (1.7 °C to 7.2 °C)
6-hr ending 12/12@10:5328 °F to 41 °F (-2.2 °C to 5 °C)
6-hr ending 12/12@04:5327 °F to 34 °F (-2.8 °C to 1.1 °C)
24-hr ending 12/12@23:5327 °F to 45 °F (-2.8 °C to 7.2 °C)
Wind9.21 MPH (8 KT) green arrow pointing 270 degrees
Wind FromWest (260 Degrees)
Twilight Begins06:55Sunshine Yesterday
Sunrise07:28N/A
Sunset16:25
Twilight Ends16:58
METARKGCC 130653Z AUTO 26008KT 10SM CLR M02/M06 A2982 RMK AO2 SLP113 T10221056 400721028
Tags: